sensor_id;sensor_type;location;lat;lon;timestamp;pressure;altitude;pressure_sealevel;temperature;humidity
68230;BME280;55048;52.220;5.160;2022-12-18T00:01:18;102727.63;;;-1.32;82.37
68230;BME280;55048;52.220;5.160;2022-12-18T00:03:44;102697.22;;;-1.44;82.30
68230;BME280;55048;52.220;5.160;2022-12-18T00:06:10;102680.22;;;-1.73;82.43
68230;BME280;55048;52.220;5.160;2022-12-18T00:08:37;102583.34;;;-2.28;82.46
68230;BME280;55048;52.220;5.160;2022-12-18T00:11:13;102725.81;;;-1.42;83.00
68230;BME280;55048;52.220;5.160;2022-12-18T00:13:39;102709.66;;;-1.47;82.52
68230;BME280;55048;52.220;5.160;2022-12-18T00:16:07;102608.38;;;-2.01;82.55
68230;BME280;55048;52.220;5.160;2022-12-18T00:18:33;102655.72;;;-1.71;82.58
68230;BME280;55048;52.220;5.160;2022-12-18T00:21:03;102632.25;;;-1.95;82.20
68230;BME280;55048;52.220;5.160;2022-12-18T00:23:33;102607.41;;;-2.24;82.93
68230;BME280;55048;52.220;5.160;2022-12-18T00:26:03;102720.94;;;-1.47;82.75
68230;BME280;55048;52.220;5.160;2022-12-18T00:28:29;102722.72;;;-1.47;83.03
68230;BME280;55048;52.220;5.160;2022-12-18T00:31:06;102718.50;;;-1.61;82.87
68230;BME280;55048;52.220;5.160;2022-12-18T00:33:32;102687.25;;;-1.87;82.95
68230;BME280;55048;52.220;5.160;2022-12-18T00:36:10;102690.16;;;-1.78;82.65
68230;BME280;55048;52.220;5.160;2022-12-18T00:38:37;102702.66;;;-1.71;82.54
68230;BME280;55048;52.220;5.160;2022-12-18T00:41:03;102703.69;;;-1.73;82.68
68230;BME280;55048;52.220;5.160;2022-12-18T00:43:28;102709.84;;;-1.62;82.57
68230;BME280;55048;52.220;5.160;2022-12-18T00:45:54;102712.81;;;-1.55;82.55
68230;BME280;55048;52.220;5.160;2022-12-18T00:48:19;102696.00;;;-1.75;82.26
68230;BME280;55048;52.220;5.160;2022-12-18T00:50:47;102708.00;;;-1.72;82.43
68230;BME280;55048;52.220;5.160;2022-12-18T00:53:13;102693.28;;;-1.73;82.27
68230;BME280;55048;52.220;5.160;2022-12-18T00:55:42;102704.00;;;-1.65;82.27
68230;BME280;55048;52.220;5.160;2022-12-18T00:58:08;102724.53;;;-1.61;82.09
68230;BME280;55048;52.220;5.160;2022-12-18T01:00:34;102719.53;;;-1.64;82.47
68230;BME280;55048;52.220;5.160;2022-12-18T01:03:01;102689.53;;;-1.82;82.18
68230;BME280;55048;52.220;5.160;2022-12-18T01:05:26;102681.94;;;-1.85;82.19
68230;BME280;55048;52.220;5.160;2022-12-18T01:07:52;102689.84;;;-1.74;82.32
68230;BME280;55048;52.220;5.160;2022-12-18T01:10:18;102668.41;;;-1.90;82.06
68230;BME280;55048;52.220;5.160;2022-12-18T01:12:46;102704.53;;;-1.73;82.12
68230;BME280;55048;52.220;5.160;2022-12-18T01:15:13;102686.34;;;-1.86;82.07
68230;BME280;55048;52.220;5.160;2022-12-18T01:17:38;102701.84;;;-1.71;82.23
68230;BME280;55048;52.220;5.160;2022-12-18T01:20:04;102710.81;;;-1.75;81.69
68230;BME280;55048;52.220;5.160;2022-12-18T01:22:33;102709.91;;;-1.87;81.66
68230;BME280;55048;52.220;5.160;2022-12-18T01:24:59;102709.06;;;-1.88;81.89
68230;BME280;55048;52.220;5.160;2022-12-18T01:27:24;102708.97;;;-1.86;81.95
68230;BME280;55048;52.220;5.160;2022-12-18T01:29:51;102710.72;;;-1.87;81.84
68230;BME280;55048;52.220;5.160;2022-12-18T01:32:18;102703.47;;;-1.94;81.66
68230;BME280;55048;52.220;5.160;2022-12-18T01:34:43;102725.34;;;-1.84;81.63
68230;BME280;55048;52.220;5.160;2022-12-18T01:37:10;102724.72;;;-1.88;81.65
68230;BME280;55048;52.220;5.160;2022-12-18T01:39:35;102718.78;;;-1.90;81.91
68230;BME280;55048;52.220;5.160;2022-12-18T01:42:15;102710.47;;;-1.95;81.52
68230;BME280;55048;52.220;5.160;2022-12-18T01:44:57;102708.19;;;-1.99;81.50
68230;BME280;55048;52.220;5.160;2022-12-18T01:50:05;102697.66;;;-2.11;81.68
68230;BME280;55048;52.220;5.160;2022-12-18T01:52:32;102710.59;;;-2.09;81.56
68230;BME280;55048;52.220;5.160;2022-12-18T01:54:59;102718.41;;;-2.09;81.96
68230;BME280;55048;52.220;5.160;2022-12-18T01:57:26;102761.47;;;-1.91;81.77
68230;BME280;55048;52.220;5.160;2022-12-18T01:59:54;102726.13;;;-2.08;81.44
68230;BME280;55048;52.220;5.160;2022-12-18T02:02:21;102761.13;;;-1.86;81.56
68230;BME280;55048;52.220;5.160;2022-12-18T02:04:47;102730.38;;;-2.07;81.83
68230;BME280;55048;52.220;5.160;2022-12-18T02:10:31;102764.97;;;-1.92;81.38
68230;BME280;55048;52.220;5.160;2022-12-18T02:15:51;102773.88;;;-2.07;81.61
68230;BME280;55048;52.220;5.160;2022-12-18T02:18:24;102734.81;;;-2.33;81.64
68230;BME280;55048;52.220;5.160;2022-12-18T02:21:04;102770.88;;;-2.14;81.18
68230;BME280;55048;52.220;5.160;2022-12-18T02:23:49;102772.03;;;-2.18;81.49
68230;BME280;55048;52.220;5.160;2022-12-18T02:26:27;102779.84;;;-2.05;81.59
68230;BME280;55048;52.220;5.160;2022-12-18T02:29:03;102780.88;;;-2.08;81.48
68230;BME280;55048;52.220;5.160;2022-12-18T02:31:38;102748.88;;;-2.22;81.75
68230;BME280;55048;52.220;5.160;2022-12-18T02:34:07;102731.78;;;-2.26;81.42
68230;BME280;55048;52.220;5.160;2022-12-18T02:36:39;102768.84;;;-1.97;81.52
68230;BME280;55048;52.220;5.160;2022-12-18T02:39:07;102763.03;;;-2.01;81.38
68230;BME280;55048;52.220;5.160;2022-12-18T02:41:36;102746.03;;;-2.07;81.24
68230;BME280;55048;52.220;5.160;2022-12-18T02:44:10;102712.91;;;-2.17;81.35
68230;BME280;55048;52.220;5.160;2022-12-18T02:46:46;102742.06;;;-1.99;80.95
68230;BME280;55048;52.220;5.160;2022-12-18T02:49:42;102743.75;;;-2.11;81.42
68230;BME280;55048;52.220;5.160;2022-12-18T02:53:01;102738.78;;;-2.14;80.88
68230;BME280;55048;52.220;5.160;2022-12-18T02:55:32;102730.63;;;-2.22;81.09
68230;BME280;55048;52.220;5.160;2022-12-18T03:00:40;102702.81;;;-2.35;80.92
68230;BME280;55048;52.220;5.160;2022-12-18T03:03:16;102713.75;;;-2.29;81.33
68230;BME280;55048;52.220;5.160;2022-12-18T03:05:57;102709.69;;;-2.34;81.16
68230;BME280;55048;52.220;5.160;2022-12-18T03:08:27;102701.66;;;-2.31;80.79
68230;BME280;55048;52.220;5.160;2022-12-18T03:11:01;102734.91;;;-2.34;80.85
68230;BME280;55048;52.220;5.160;2022-12-18T03:13:51;102714.50;;;-2.40;80.78
68230;BME280;55048;52.220;5.160;2022-12-18T03:16:27;102715.31;;;-2.40;80.88
68230;BME280;55048;52.220;5.160;2022-12-18T03:18:57;102711.16;;;-2.42;81.10
68230;BME280;55048;52.220;5.160;2022-12-18T03:21:37;102659.38;;;-2.72;80.92
68230;BME280;55048;52.220;5.160;2022-12-18T03:24:06;102693.75;;;-2.54;80.90
68230;BME280;55048;52.220;5.160;2022-12-18T03:26:34;102692.63;;;-2.63;80.81
68230;BME280;55048;52.220;5.160;2022-12-18T03:29:09;102666.25;;;-2.71;80.87
68230;BME280;55048;52.220;5.160;2022-12-18T03:31:40;102663.34;;;-2.79;80.95
68230;BME280;55048;52.220;5.160;2022-12-18T03:34:21;102685.53;;;-2.61;81.12
68230;BME280;55048;52.220;5.160;2022-12-18T03:36:48;102660.19;;;-2.85;80.82
68230;BME280;55048;52.220;5.160;2022-12-18T03:39:14;102617.09;;;-3.14;80.38
68230;BME280;55048;52.220;5.160;2022-12-18T03:41:45;102671.25;;;-2.81;81.06
68230;BME280;55048;52.220;5.160;2022-12-18T03:44:29;102680.97;;;-2.70;80.98
68230;BME280;55048;52.220;5.160;2022-12-18T03:49:46;102678.66;;;-2.75;80.55
68230;BME280;55048;52.220;5.160;2022-12-18T03:52:18;102643.53;;;-2.95;80.68
68230;BME280;55048;52.220;5.160;2022-12-18T03:54:46;102655.66;;;-2.94;80.91
68230;BME280;55048;52.220;5.160;2022-12-18T03:57:21;102651.78;;;-2.88;80.43
68230;BME280;55048;52.220;5.160;2022-12-18T03:59:54;102674.09;;;-2.84;80.30
68230;BME280;55048;52.220;5.160;2022-12-18T04:02:24;102644.28;;;-2.93;80.22
68230;BME280;55048;52.220;5.160;2022-12-18T04:04:53;102668.56;;;-2.79;80.21
68230;BME280;55048;52.220;5.160;2022-12-18T04:07:21;102655.31;;;-2.89;80.09
68230;BME280;55048;52.220;5.160;2022-12-18T04:09:48;102586.91;;;-3.29;79.80
68230;BME280;55048;52.220;5.160;2022-12-18T04:12:17;102644.19;;;-2.91;79.80
68230;BME280;55048;52.220;5.160;2022-12-18T04:14:44;102617.31;;;-3.04;79.63
68230;BME280;55048;52.220;5.160;2022-12-18T04:17:10;102589.50;;;-3.29;80.11
68230;BME280;55048;52.220;5.160;2022-12-18T04:19:35;102605.22;;;-3.18;80.02
68230;BME280;55048;52.220;5.160;2022-12-18T04:22:02;102640.22;;;-3.10;80.19
68230;BME280;55048;52.220;5.160;2022-12-18T04:24:32;102642.69;;;-3.08;80.15
68230;BME280;55048;52.220;5.160;2022-12-18T04:27:08;102630.41;;;-3.19;79.81
68230;BME280;55048;52.220;5.160;2022-12-18T04:29:40;102627.28;;;-3.24;79.64
68230;BME280;55048;52.220;5.160;2022-12-18T04:32:07;102620.72;;;-3.29;79.81
68230;BME280;55048;52.220;5.160;2022-12-18T04:34:33;102653.53;;;-3.14;79.84
68230;BME280;55048;52.220;5.160;2022-12-18T04:36:58;102602.69;;;-3.45;79.57
68230;BME280;55048;52.220;5.160;2022-12-18T04:39:24;102659.66;;;-3.15;79.80
68230;BME280;55048;52.220;5.160;2022-12-18T04:41:53;102631.63;;;-3.37;79.21
68230;BME280;55048;52.220;5.160;2022-12-18T04:44:18;102667.59;;;-3.17;79.14
68230;BME280;55048;52.220;5.160;2022-12-18T04:46:43;102636.75;;;-3.36;79.29
68230;BME280;55048;52.220;5.160;2022-12-18T04:49:09;102678.84;;;-3.16;79.19
68230;BME280;55048;52.220;5.160;2022-12-18T04:51:36;102645.09;;;-3.30;79.17
68230;BME280;55048;52.220;5.160;2022-12-18T04:54:01;102673.72;;;-3.18;78.82
68230;BME280;55048;52.220;5.160;2022-12-18T04:56:27;102685.81;;;-3.17;79.02
68230;BME280;55048;52.220;5.160;2022-12-18T04:58:52;102691.72;;;-3.15;79.49
68230;BME280;55048;52.220;5.160;2022-12-18T05:01:18;102698.06;;;-3.19;78.62
68230;BME280;55048;52.220;5.160;2022-12-18T05:03:43;102703.28;;;-3.19;79.01
68230;BME280;55048;52.220;5.160;2022-12-18T05:06:09;102696.28;;;-3.18;79.14
68230;BME280;55048;52.220;5.160;2022-12-18T05:08:35;102673.38;;;-3.39;79.08
68230;BME280;55048;52.220;5.160;2022-12-18T05:11:07;102700.34;;;-3.27;78.63
68230;BME280;55048;52.220;5.160;2022-12-18T05:13:33;102704.53;;;-3.24;78.69
68230;BME280;55048;52.220;5.160;2022-12-18T05:15:59;102642.94;;;-3.64;79.01
68230;BME280;55048;52.220;5.160;2022-12-18T05:18:25;102674.59;;;-3.44;78.42
68230;BME280;55048;52.220;5.160;2022-12-18T05:20:51;102702.94;;;-3.27;78.42
68230;BME280;55048;52.220;5.160;2022-12-18T05:23:18;102706.41;;;-3.26;78.69
68230;BME280;55048;52.220;5.160;2022-12-18T05:25:53;102691.88;;;-3.43;78.65
68230;BME280;55048;52.220;5.160;2022-12-18T05:28:18;102712.56;;;-3.42;78.42
68230;BME280;55048;52.220;5.160;2022-12-18T05:30:51;102722.91;;;-3.40;78.44
68230;BME280;55048;52.220;5.160;2022-12-18T05:33:18;102720.31;;;-3.40;78.32
68230;BME280;55048;52.220;5.160;2022-12-18T05:35:44;102725.69;;;-3.43;78.59
68230;BME280;55048;52.220;5.160;2022-12-18T05:38:15;102713.38;;;-3.54;77.59
68230;BME280;55048;52.220;5.160;2022-12-18T05:40:42;102701.22;;;-3.53;78.08
68230;BME280;55048;52.220;5.160;2022-12-18T05:43:08;102694.41;;;-3.56;78.21
68230;BME280;55048;52.220;5.160;2022-12-18T05:45:37;102684.06;;;-3.70;77.98
68230;BME280;55048;52.220;5.160;2022-12-18T05:48:03;102677.22;;;-3.71;77.91
68230;BME280;55048;52.220;5.160;2022-12-18T05:50:29;102626.44;;;-4.04;77.87
68230;BME280;55048;52.220;5.160;2022-12-18T05:53:00;102697.06;;;-3.70;78.31
68230;BME280;55048;52.220;5.160;2022-12-18T05:55:25;102671.53;;;-3.78;79.00
68230;BME280;55048;52.220;5.160;2022-12-18T05:57:51;102649.88;;;-3.91;78.63
68230;BME280;55048;52.220;5.160;2022-12-18T06:00:16;102667.81;;;-3.74;78.46
68230;BME280;55048;52.220;5.160;2022-12-18T06:02:42;102685.84;;;-3.71;79.09
68230;BME280;55048;52.220;5.160;2022-12-18T06:05:07;102632.34;;;-4.02;78.46
68230;BME280;55048;52.220;5.160;2022-12-18T06:07:33;102675.72;;;-3.75;77.95
68230;BME280;55048;52.220;5.160;2022-12-18T06:09:58;102672.47;;;-3.79;78.19
68230;BME280;55048;52.220;5.160;2022-12-18T06:12:23;102524.72;;;-4.80;77.91
68230;BME280;55048;52.220;5.160;2022-12-18T06:14:49;102593.84;;;-4.37;78.35
68230;BME280;55048;52.220;5.160;2022-12-18T06:17:22;102515.81;;;-4.76;78.07
68230;BME280;55048;52.220;5.160;2022-12-18T06:19:47;102585.88;;;-4.33;78.72
68230;BME280;55048;52.220;5.160;2022-12-18T06:22:13;102550.41;;;-4.62;78.14
68230;BME280;55048;52.220;5.160;2022-12-18T06:24:41;102663.50;;;-3.88;78.19
68230;BME280;55048;52.220;5.160;2022-12-18T06:27:06;102619.69;;;-4.21;78.15
68230;BME280;55048;52.220;5.160;2022-12-18T06:29:32;102639.44;;;-4.04;78.40
68230;BME280;55048;52.220;5.160;2022-12-18T06:31:57;102652.50;;;-3.91;78.61
68230;BME280;55048;52.220;5.160;2022-12-18T06:34:22;102643.28;;;-3.97;78.35
68230;BME280;55048;52.220;5.160;2022-12-18T06:36:48;102638.66;;;-3.92;78.46
68230;BME280;55048;52.220;5.160;2022-12-18T06:39:13;102612.06;;;-4.09;78.25
68230;BME280;55048;52.220;5.160;2022-12-18T06:41:38;102608.53;;;-4.08;78.32
68230;BME280;55048;52.220;5.160;2022-12-18T06:44:04;102639.28;;;-3.88;78.29
68230;BME280;55048;52.220;5.160;2022-12-18T06:46:29;102573.13;;;-4.24;77.86
68230;BME280;55048;52.220;5.160;2022-12-18T06:48:55;102576.69;;;-4.12;77.98
68230;BME280;55048;52.220;5.160;2022-12-18T06:51:22;102620.06;;;-3.86;77.95
68230;BME280;55048;52.220;5.160;2022-12-18T06:53:47;102596.72;;;-4.00;78.04
68230;BME280;55048;52.220;5.160;2022-12-18T06:56:13;102578.03;;;-4.19;78.04
68230;BME280;55048;52.220;5.160;2022-12-18T06:58:39;102614.41;;;-3.92;78.44
68230;BME280;55048;52.220;5.160;2022-12-18T07:01:06;102606.06;;;-3.97;77.93
68230;BME280;55048;52.220;5.160;2022-12-18T07:03:31;102570.53;;;-4.24;78.00
68230;BME280;55048;52.220;5.160;2022-12-18T07:05:57;102598.84;;;-4.06;78.12
68230;BME280;55048;52.220;5.160;2022-12-18T07:08:22;102562.53;;;-4.21;78.39
68230;BME280;55048;52.220;5.160;2022-12-18T07:10:48;102565.66;;;-4.16;78.39
68230;BME280;55048;52.220;5.160;2022-12-18T07:13:16;102571.63;;;-4.14;78.04
68230;BME280;55048;52.220;5.160;2022-12-18T07:15:42;102578.19;;;-4.08;78.20
68230;BME280;55048;52.220;5.160;2022-12-18T07:18:08;102499.03;;;-4.56;78.63
68230;BME280;55048;52.220;5.160;2022-12-18T07:20:33;102491.31;;;-4.58;78.47
68230;BME280;55048;52.220;5.160;2022-12-18T07:23:01;102470.59;;;-4.72;77.80
68230;BME280;55048;52.220;5.160;2022-12-18T07:25:27;102592.16;;;-3.96;78.39
68230;BME280;55048;52.220;5.160;2022-12-18T07:27:52;102529.56;;;-4.33;77.87
68230;BME280;55048;52.220;5.160;2022-12-18T07:30:18;102554.66;;;-4.19;78.36
68230;BME280;55048;52.220;5.160;2022-12-18T07:32:43;102582.69;;;-3.97;78.37
68230;BME280;55048;52.220;5.160;2022-12-18T07:35:08;102433.44;;;-4.87;78.03
68230;BME280;55048;52.220;5.160;2022-12-18T07:37:34;102531.75;;;-4.27;78.29
68230;BME280;55048;52.220;5.160;2022-12-18T07:39:59;102450.94;;;-4.76;78.41
68230;BME280;55048;52.220;5.160;2022-12-18T07:42:25;102540.28;;;-4.25;78.82
68230;BME280;55048;52.220;5.160;2022-12-18T07:44:57;102557.94;;;-4.03;78.71
68230;BME280;55048;52.220;5.160;2022-12-18T07:47:22;102543.38;;;-4.05;78.41
68230;BME280;55048;52.220;5.160;2022-12-18T07:49:48;102514.28;;;-4.25;78.47
68230;BME280;55048;52.220;5.160;2022-12-18T07:52:13;102512.44;;;-4.23;78.55
68230;BME280;55048;52.220;5.160;2022-12-18T07:54:38;102481.72;;;-4.43;78.41
68230;BME280;55048;52.220;5.160;2022-12-18T07:57:05;102551.50;;;-3.97;78.23
68230;BME280;55048;52.220;5.160;2022-12-18T07:59:34;102521.72;;;-4.06;78.85
68230;BME280;55048;52.220;5.160;2022-12-18T08:01:59;102552.88;;;-3.92;78.68
68230;BME280;55048;52.220;5.160;2022-12-18T08:04:25;102487.19;;;-4.21;78.47
68230;BME280;55048;52.220;5.160;2022-12-18T08:06:51;102505.31;;;-4.06;78.64
68230;BME280;55048;52.220;5.160;2022-12-18T08:09:16;102521.88;;;-3.95;78.63
68230;BME280;55048;52.220;5.160;2022-12-18T08:11:42;102512.91;;;-4.03;78.64
68230;BME280;55048;52.220;5.160;2022-12-18T08:14:07;102550.91;;;-3.88;78.78
68230;BME280;55048;52.220;5.160;2022-12-18T08:16:33;102503.31;;;-4.16;78.71
68230;BME280;55048;52.220;5.160;2022-12-18T08:18:58;102521.44;;;-4.01;78.94
68230;BME280;55048;52.220;5.160;2022-12-18T08:21:29;102479.69;;;-4.25;78.67
68230;BME280;55048;52.220;5.160;2022-12-18T08:23:58;102449.81;;;-4.45;78.59
68230;BME280;55048;52.220;5.160;2022-12-18T08:26:26;102465.16;;;-4.28;78.44
68230;BME280;55048;52.220;5.160;2022-12-18T08:28:53;102567.50;;;-3.64;78.52
68230;BME280;55048;52.220;5.160;2022-12-18T08:31:19;102544.47;;;-3.82;78.42
68230;BME280;55048;52.220;5.160;2022-12-18T08:33:45;102574.25;;;-3.61;78.83
68230;BME280;55048;52.220;5.160;2022-12-18T08:36:10;102580.28;;;-3.61;78.78
68230;BME280;55048;52.220;5.160;2022-12-18T08:38:36;102570.72;;;-3.60;78.35
68230;BME280;55048;52.220;5.160;2022-12-18T08:41:07;102567.75;;;-3.54;78.73
68230;BME280;55048;52.220;5.160;2022-12-18T08:43:32;102544.81;;;-3.62;78.37
68230;BME280;55048;52.220;5.160;2022-12-18T08:46:17;102544.94;;;-3.50;78.38
68230;BME280;55048;52.220;5.160;2022-12-18T08:48:43;102540.78;;;-3.53;78.69
68230;BME280;55048;52.220;5.160;2022-12-18T08:51:09;102539.00;;;-3.52;78.55
68230;BME280;55048;52.220;5.160;2022-12-18T08:53:35;102506.03;;;-3.77;78.57
68230;BME280;55048;52.220;5.160;2022-12-18T08:56:01;102477.94;;;-3.85;78.45
68230;BME280;55048;52.220;5.160;2022-12-18T08:58:26;102520.28;;;-3.57;78.37
68230;BME280;55048;52.220;5.160;2022-12-18T09:00:52;102536.22;;;-3.49;78.68
68230;BME280;55048;52.220;5.160;2022-12-18T09:03:18;102547.69;;;-3.26;78.93
68230;BME280;55048;52.220;5.160;2022-12-18T09:05:45;102540.69;;;-3.26;78.77
68230;BME280;55048;52.220;5.160;2022-12-18T09:08:11;102502.50;;;-3.38;78.85
68230;BME280;55048;52.220;5.160;2022-12-18T09:10:43;102537.69;;;-3.20;78.38
68230;BME280;55048;52.220;5.160;2022-12-18T09:13:10;102546.41;;;-3.08;78.74
68230;BME280;55048;52.220;5.160;2022-12-18T09:15:40;102499.69;;;-3.35;78.75
68230;BME280;55048;52.220;5.160;2022-12-18T09:18:06;102494.38;;;-3.34;78.65
68230;BME280;55048;52.220;5.160;2022-12-18T09:20:32;102478.97;;;-3.37;78.50
68230;BME280;55048;52.220;5.160;2022-12-18T09:22:57;102542.75;;;-2.93;78.69
68230;BME280;55048;52.220;5.160;2022-12-18T09:25:23;102507.91;;;-3.16;78.56
68230;BME280;55048;52.220;5.160;2022-12-18T09:27:48;102509.75;;;-3.05;78.53
68230;BME280;55048;52.220;5.160;2022-12-18T09:30:13;102504.34;;;-3.02;78.60
68230;BME280;55048;52.220;5.160;2022-12-18T09:32:39;102493.81;;;-3.00;78.54
68230;BME280;55048;52.220;5.160;2022-12-18T09:35:04;102499.00;;;-2.88;78.12
68230;BME280;55048;52.220;5.160;2022-12-18T09:37:30;102529.59;;;-2.66;78.49
68230;BME280;55048;52.220;5.160;2022-12-18T09:39:56;102520.59;;;-2.62;78.26
68230;BME280;55048;52.220;5.160;2022-12-18T09:42:22;102506.47;;;-2.70;78.04
68230;BME280;55048;52.220;5.160;2022-12-18T09:44:53;102533.28;;;-2.57;78.04
68230;BME280;55048;52.220;5.160;2022-12-18T09:47:28;102529.31;;;-2.50;78.06
68230;BME280;55048;52.220;5.160;2022-12-18T09:50:01;102528.53;;;-2.39;78.01
68230;BME280;55048;52.220;5.160;2022-12-18T09:52:37;102519.53;;;-2.46;78.14
68230;BME280;55048;52.220;5.160;2022-12-18T09:57:45;102497.72;;;-2.45;77.87
68230;BME280;55048;52.220;5.160;2022-12-18T10:00:23;102482.47;;;-2.39;78.06
68230;BME280;55048;52.220;5.160;2022-12-18T10:02:59;102498.59;;;-2.34;78.09
68230;BME280;55048;52.220;5.160;2022-12-18T10:15:54;102519.19;;;-2.18;78.55
68230;BME280;55048;52.220;5.160;2022-12-18T10:18:48;102529.78;;;-2.08;78.37
68230;BME280;55048;52.220;5.160;2022-12-18T10:21:22;102521.47;;;-2.13;78.32
68230;BME280;55048;52.220;5.160;2022-12-18T10:26:18;102454.72;;;-2.27;78.19
68230;BME280;55048;52.220;5.160;2022-12-18T10:28:44;102483.84;;;-1.98;78.31
68230;BME280;55048;52.220;5.160;2022-12-18T10:31:36;102461.19;;;-2.09;78.07
68230;BME280;55048;52.220;5.160;2022-12-18T10:34:01;102492.97;;;-1.92;78.11
68230;BME280;55048;52.220;5.160;2022-12-18T10:36:27;102465.56;;;-2.09;77.85
68230;BME280;55048;52.220;5.160;2022-12-18T10:38:52;102466.75;;;-2.02;78.10
68230;BME280;55048;52.220;5.160;2022-12-18T10:43:44;102474.50;;;-1.89;78.54
68230;BME280;55048;52.220;5.160;2022-12-18T10:51:28;102454.25;;;-1.74;77.93
68230;BME280;55048;52.220;5.160;2022-12-18T10:53:57;102470.16;;;-1.55;77.97
68230;BME280;55048;52.220;5.160;2022-12-18T10:56:26;102466.03;;;-1.58;77.80
68230;BME280;55048;52.220;5.160;2022-12-18T10:59:03;102438.25;;;-1.70;77.90
68230;BME280;55048;52.220;5.160;2022-12-18T11:02:07;102438.16;;;-1.57;78.14
68230;BME280;55048;52.220;5.160;2022-12-18T11:04:52;102441.13;;;-1.50;78.06
68230;BME280;55048;52.220;5.160;2022-12-18T11:07:18;102421.69;;;-1.58;77.82
68230;BME280;55048;52.220;5.160;2022-12-18T11:09:43;102322.75;;;-2.17;77.69
68230;BME280;55048;52.220;5.160;2022-12-18T11:12:24;102260.41;;;-2.53;77.60
68230;BME280;55048;52.220;5.160;2022-12-18T11:14:52;102449.19;;;-1.31;77.86
68230;BME280;55048;52.220;5.160;2022-12-18T11:19:59;102340.81;;;-1.80;77.21
68230;BME280;55048;52.220;5.160;2022-12-18T11:22:32;102340.09;;;-1.71;77.24
68230;BME280;55048;52.220;5.160;2022-12-18T11:27:59;102253.59;;;-2.10;77.62
68230;BME280;55048;52.220;5.160;2022-12-18T11:30:36;102307.38;;;-1.75;77.19
68230;BME280;55048;52.220;5.160;2022-12-18T11:38:28;102424.94;;;-0.88;77.28
68230;BME280;55048;52.220;5.160;2022-12-18T11:43:53;102424.09;;;-0.78;77.22
68230;BME280;55048;52.220;5.160;2022-12-18T11:46:37;102422.63;;;-0.70;77.06
68230;BME280;55048;52.220;5.160;2022-12-18T11:49:14;102407.22;;;-0.73;76.69
68230;BME280;55048;52.220;5.160;2022-12-18T11:52:18;102408.72;;;-0.71;76.52
68230;BME280;55048;52.220;5.160;2022-12-18T11:54:45;102378.94;;;-0.80;76.63
68230;BME280;55048;52.220;5.160;2022-12-18T11:57:20;102390.06;;;-0.66;77.08
68230;BME280;55048;52.220;5.160;2022-12-18T12:00:02;102380.56;;;-0.67;76.60
68230;BME280;55048;52.220;5.160;2022-12-18T12:11:20;102352.44;;;-0.64;76.60
68230;BME280;55048;52.220;5.160;2022-12-18T12:19:26;102345.25;;;-0.50;76.60
68230;BME280;55048;52.220;5.160;2022-12-18T12:30:25;102310.44;;;-0.51;76.21
68230;BME280;55048;52.220;5.160;2022-12-18T12:33:01;102326.19;;;-0.41;76.07
68230;BME280;55048;52.220;5.160;2022-12-18T12:38:30;102324.00;;;-0.36;75.71
68230;BME280;55048;52.220;5.160;2022-12-18T12:41:01;102288.69;;;-0.52;76.28
68230;BME280;55048;52.220;5.160;2022-12-18T12:43:35;102304.50;;;-0.32;75.94
68230;BME280;55048;52.220;5.160;2022-12-18T12:46:11;102306.16;;;-0.31;76.01
68230;BME280;55048;52.220;5.160;2022-12-18T12:48:53;102300.78;;;-0.30;75.53
68230;BME280;55048;52.220;5.160;2022-12-18T12:51:25;102299.97;;;-0.30;75.60
68230;BME280;55048;52.220;5.160;2022-12-18T12:53:51;102261.47;;;-0.49;75.70
68230;BME280;55048;52.220;5.160;2022-12-18T12:56:19;102269.50;;;-0.41;75.49
68230;BME280;55048;52.220;5.160;2022-12-18T13:01:25;102291.91;;;-0.17;75.45
68230;BME280;55048;52.220;5.160;2022-12-18T13:07:10;102248.78;;;-0.33;75.31
68230;BME280;55048;52.220;5.160;2022-12-18T13:15:49;102291.78;;;-0.16;74.68
68230;BME280;55048;52.220;5.160;2022-12-18T13:18:28;102290.69;;;-0.13;74.92
68230;BME280;55048;52.220;5.160;2022-12-18T13:25:48;102250.88;;;-0.27;74.62
68230;BME280;55048;52.220;5.160;2022-12-18T13:28:21;102216.22;;;-0.49;74.47
68230;BME280;55048;52.220;5.160;2022-12-18T13:30:54;102262.72;;;-0.22;74.51
68230;BME280;55048;52.220;5.160;2022-12-18T13:35:58;102218.75;;;-0.38;74.13
68230;BME280;55048;52.220;5.160;2022-12-18T13:40:58;102226.13;;;-0.22;74.39
68230;BME280;55048;52.220;5.160;2022-12-18T13:43:28;102185.28;;;-0.44;74.56
68230;BME280;55048;52.220;5.160;2022-12-18T13:48:33;102215.81;;;-0.14;74.28
68230;BME280;55048;52.220;5.160;2022-12-18T13:51:01;102214.44;;;-0.18;74.39
68230;BME280;55048;52.220;5.160;2022-12-18T13:53:51;102211.25;;;-0.22;74.00
68230;BME280;55048;52.220;5.160;2022-12-18T13:56:26;102201.63;;;-0.21;74.38
68230;BME280;55048;52.220;5.160;2022-12-18T13:59:15;102210.16;;;-0.19;73.97
68230;BME280;55048;52.220;5.160;2022-12-18T14:01:49;102212.94;;;-0.11;74.07
68230;BME280;55048;52.220;5.160;2022-12-18T14:04:20;102208.81;;;-0.14;73.96
68230;BME280;55048;52.220;5.160;2022-12-18T14:06:46;102185.63;;;-0.28;74.12
68230;BME280;55048;52.220;5.160;2022-12-18T14:09:17;102191.59;;;-0.16;73.86
68230;BME280;55048;52.220;5.160;2022-12-18T14:11:49;102221.50;;;-0.09;74.05
68230;BME280;55048;52.220;5.160;2022-12-18T14:14:16;102202.06;;;-0.07;73.78
68230;BME280;55048;52.220;5.160;2022-12-18T14:16:44;102208.97;;;-0.06;73.68
68230;BME280;55048;52.220;5.160;2022-12-18T14:19:16;102167.88;;;-0.24;73.85
68230;BME280;55048;52.220;5.160;2022-12-18T14:21:47;102130.16;;;-0.41;73.55
68230;BME280;55048;52.220;5.160;2022-12-18T14:24:19;102176.91;;;-0.08;73.67
68230;BME280;55048;52.220;5.160;2022-12-18T14:26:46;102190.00;;;0.02;73.45
68230;BME280;55048;52.220;5.160;2022-12-18T14:31:46;102183.13;;;0.01;73.17
68230;BME280;55048;52.220;5.160;2022-12-18T14:34:15;101980.00;;;-1.18;73.34
68230;BME280;55048;52.220;5.160;2022-12-18T14:36:58;101967.09;;;-1.19;73.30
68230;BME280;55048;52.220;5.160;2022-12-18T14:39:24;102102.09;;;-0.30;73.37
68230;BME280;55048;52.220;5.160;2022-12-18T14:41:51;102022.63;;;-0.77;73.07
68230;BME280;55048;52.220;5.160;2022-12-18T14:44:17;102005.13;;;-0.86;73.04
68230;BME280;55048;52.220;5.160;2022-12-18T14:46:44;102030.25;;;-0.55;73.12